Date,TemperatureHighF,TemperatureAvgF,TemperatureLowF,DewpointHighF,DewpointAvgF,DewpointLowF,HumidityHigh,HumidityAvg,HumidityLow,PressureMaxIn,PressureMinIn,WindSpeedMaxMPH,WindSpeedAvgMPH,GustSpeedMaxMPH,PrecipitationSumIn
2013-1-1,48,44,40,46,38,18,96,81,39,30.27,30.15,6,1,11,1.06
2013-1-2,44,36,34,42,35,33,97,97,96,30.30,30.15,7,2,10,0.08
2013-1-3,37,33,31,36,32,25,97,94,78,30.47,30.27,6,2,9,0.00
2013-1-4,38,31,27,24,19,16,75,61,41,30.53,30.45,7,1,10,0.00
2013-1-5,44,34,26,27,20,15,72,55,38,30.50,30.39,8,1,13,0.00
2013-1-6,41,36,34,38,32,26,91,83,72,30.42,30.30,5,0,8,0.12
2013-1-7,47,35,28,32,26,21,86,70,41,30.50,30.39,7,1,11,0.00
2013-1-8,55,47,36,43,33,20,80,59,47,30.50,30.42,4,0,12,0.00
2013-1-9,56,52,49,54,49,44,91,87,79,30.59,30.47,6,1,10,0.00
2013-1-10,63,57,50,53,49,42,93,75,49,30.59,30.36,8,1,16,0.00
2013-1-11,61,59,57,59,56,48,95,90,74,30.36,30.27,10,3,17,0.20
2013-1-12,67,62,59,66,59,53,97,92,79,30.33,30.24,6,2,12,0.08
2013-1-13,64,60,58,57,54,52,90,79,69,30.27,30.18,9,2,17,1.02
2013-1-14,58,43,37,55,42,36,97,96,91,30.39,30.24,10,4,20,3.03
2013-1-15,53,43,38,53,42,37,97,97,97,30.30,30.15,8,3,12,1.69
2013-1-16,58,48,42,57,47,41,97,97,97,30.21,30.09,7,3,10,0.31
2013-1-17,42,38,34,41,37,33,97,97,97,30.18,29.91,18,8,28,1.02
2013-1-18,41,33,29,39,30,26,97,90,64,30.62,30.45,7,1,11,0.20
2013-1-19,49,39,33,30,23,20,81,55,37,30.53,30.36,9,2,11,0.00
2013-1-20,51,41,36,29,24,20,64,51,34,30.36,30.27,7,1,10,0.00
2013-1-21,42,35,28,25,13,-3,65,44,15,30.33,30.24,8,2,15,0.00
2013-1-22,32,25,19,8,-4,-17,46,30,13,30.45,30.33,9,1,12,0.00
2013-1-23,43,33,25,22,8,-11,51,35,19,30.47,30.30,6,2,10,0.00
2013-1-24,42,34,26,31,10,-14,65,41,12,30.47,30.30,10,4,17,0.00
2013-1-25,37,32,26,34,18,-3,92,62,23,30.45,30.24,9,2,22,0.04
2013-1-26,45,36,31,37,28,20,97,76,41,30.45,30.30,5,1,11,0.00
2013-1-27,49,43,32,26,25,23,72,49,40,30.53,30.45,8,3,15,0.00
2013-1-28,56,48,41,46,36,22,82,63,46,30.50,30.42,10,3,15,0.00
2013-1-29,63,56,49,56,50,44,90,81,72,30.42,30.12,7,2,13,0.00
2013-1-30,63,55,37,61,52,33,94,89,79,30.09,29.77,11,5,35,2.13
2013-1-31,40,33,29,29,16,10,82,50,29,30.24,29.94,14,6,22,0.00
2013-2-1,38,26,18,23,6,-8,76,44,18,30.47,30.21,13,3,19,0.00
2013-2-2,34,28,21,29,15,2,82,59,30,30.47,30.24,8,2,16,0.00
2013-2-3,43,34,29,30,23,14,82,64,33,30.27,30.15,11,2,18,0.00
2013-2-4,47,36,27,20,17,15,66,48,29,30.27,30.15,5,1,11,0.00
2013-2-5,57,46,39,38,28,18,73,52,29,30.21,30.12,7,1,11,0.00
2013-2-6,60,46,37,36,24,0,80,50,10,30.36,30.21,4,0,11,0.00
2013-2-7,50,47,44,41,30,16,87,56,30,30.30,30.12,7,1,15,0.04
2013-2-8,50,43,34,48,37,25,96,81,48,30.36,30.09,7,2,14,0.11
2013-2-9,55,39,28,28,23,17,78,56,29,30.45,30.36,9,2,13,0.00
2013-2-10,53,46,43,47,22,-2,96,46,10,30.39,30.21,12,4,25,0.67
2013-2-11,52,49,42,51,47,39,97,94,88,30.30,30.18,12,3,18,0.20
2013-2-12,47,41,37,37,27,21,88,59,39,30.30,30.03,12,2,15,0.12
2013-2-13,44,40,34,42,37,30,95,89,80,30.15,29.85,15,3,17,0.08
2013-2-14,53,39,34,32,28,23,87,68,32,30.24,30.15,7,1,10,0.00
2013-2-15,54,41,34,35,29,26,80,65,36,30.27,30.18,7,2,14,0.04
2013-2-16,34,29,23,28,15,3,80,58,30,30.24,30.15,11,2,19,0.00
2013-2-17,42,27,19,8,2,-14,57,38,10,30.39,30.24,12,2,15,0.00
2013-2-18,58,40,30,15,8,-2,38,28,10,30.45,30.18,10,4,20,0.00
2013-2-19,51,42,32,42,14,-13,92,43,10,30.33,30.12,12,6,18,0.24
2013-2-20,37,32,27,12,5,-13,50,34,11,30.36,30.30,5,1,13,0.00
2013-2-21,53,39,26,36,15,-2,84,43,10,30.33,30.12,5,1,12,0.71
2013-2-22,48,44,39,43,39,37,95,83,70,30.24,30.15,10,4,26,0.28
2013-2-23,52,46,43,51,44,40,96,93,88,30.18,30.03,5,1,9,0.31
2013-2-24,58,42,33,40,28,19,93,64,22,30.21,30.09,6,1,10,0.00
2013-2-25,51,43,35,34,23,18,67,46,29,30.18,29.94,7,3,22,0.00
2013-2-26,50,44,36,48,39,28,96,83,61,29.97,29.65,11,6,21,0.63
2013-2-27,53,39,34,33,28,22,87,69,33,30.03,29.91,9,4,14,0.00
2013-2-28,36,32,31,24,19,17,72,58,53,30.15,30.00,10,4,17,0.00
2013-3-1,33,32,30,28,24,18,85,73,58,30.15,30.09,7,0,8,0.00
2013-3-2,32,30,27,30,26,20,94,85,72,30.18,30.06,4,1,9,0.00
2013-3-3,37,28,24,19,15,9,79,60,33,30.21,30.15,6,1,12,0.16
2013-3-4,54,37,24,21,13,-6,60,41,12,30.30,30.15,6,1,12,0.04
2013-3-5,52,44,32,49,35,20,93,72,39,30.21,29.85,12,4,21,0.75
2013-3-6,31,28,26,25,21,14,88,75,58,30.36,30.03,11,4,20,0.00
2013-3-7,47,33,29,27,24,21,88,71,40,30.42,30.33,7,3,15,0.04
2013-3-8,58,38,26,28,18,-2,88,55,10,30.47,30.39,11,4,14,0.00
2013-3-9,41,36,34,20,18,15,56,48,34,30.45,30.39,7,3,11,0.00
2013-3-10,54,52,49,27,24,17,36,32,28,30.30,30.18,6,5,20,0.00
2013-3-11,57,53,44,48,43,29,93,72,39,30.18,29.97,13,5,19,0.00
2013-3-12,56,41,34,42,31,22,95,71,30,30.27,30.06,7,3,13,0.00
2013-3-13,44,36,30,25,18,1,71,50,18,30.42,30.24,10,3,17,0.00
2013-3-14,49,34,23,20,7,-10,61,38,10,30.47,30.39,7,1,12,0.00
2013-3-15,69,50,34,32,24,13,73,42,12,30.42,30.15,7,3,14,0.00
2013-3-16,76,62,54,36,31,15,45,33,10,30.15,30.06,12,6,17,0.04
2013-3-17,69,61,54,43,36,32,56,40,25,30.18,30.09,8,3,13,0.00
2013-3-18,56,53,49,49,46,38,94,78,51,30.15,30.00,10,2,95,1.02
2013-3-19,60,46,36,48,23,-5,95,53,10,30.30,30.06,9,3,16,0.00
2013-3-20,57,42,34,21,5,-10,55,26,10,30.30,30.09,11,3,20,0.00
2013-3-21,43,31,21,19,2,-13,56,33,10,30.15,30.09,10,2,15,0.00
2013-3-22,45,36,28,18,9,3,43,33,18,30.18,30.12,5,1,8,0.00
2013-3-23,52,44,39,44,34,18,85,68,39,30.18,29.94,7,1,11,0.00
2013-3-24,60,49,37,58,44,23,95,84,54,30.03,29.65,10,4,22,1.12
2013-3-25,37,30,28,23,17,15,65,56,51,30.18,29.83,15,8,21,0.00
2013-3-26,35,30,26,25,20,16,84,69,47,30.42,30.18,9,4,14,0.00
2013-3-27,54,36,28,22,14,-4,76,48,10,30.47,30.39,9,2,15,0.00
2013-3-28,58,42,30,17,11,-5,55,33,10,30.47,30.42,8,1,14,0.00
2013-3-29,48,41,35,34,21,14,68,45,29,30.50,30.39,6,1,10,0.00
2013-3-30,65,50,41,48,37,28,89,65,26,30.39,30.21,5,0,10,0.20
2013-3-31,58,53,50,57,51,45,96,92,83,30.21,30.06,10,3,11,0.35
2013-4-1,63,51,42,52,40,27,96,71,32,30.24,30.09,10,2,15,0.00
2013-4-2,56,45,35,27,12,-3,53,31,10,30.36,30.24,7,1,12,0.00
2013-4-3,57,46,37,17,10,-2,39,25,10,30.39,30.30,9,3,12,0.00
2013-4-4,48,42,38,39,33,17,92,76,29,30.33,30.12,9,1,10,1.14
2013-4-5,64,47,38,44,35,28,96,71,26,30.27,30.15,10,2,14,0.00
2013-4-6,74,54,40,31,22,5,66,37,10,30.36,30.27,8,2,12,0.00
2013-4-7,74,60,49,36,27,16,46,31,11,30.36,30.27,7,3,12,0.00
2013-4-8,75,63,56,45,38,33,62,41,27,30.33,30.24,6,2,16,0.00
2013-4-9,84,67,58,49,42,34,64,43,19,30.39,30.24,11,2,15,0.00
2013-4-10,88,70,60,51,44,39,64,42,18,30.33,30.15,7,3,13,0.00
2013-4-11,78,67,60,56,47,42,87,51,31,30.15,29.91,8,3,36,1.18
2013-4-12,66,55,47,57,42,24,95,68,22,30.15,29.85,9,4,15,0.24
2013-4-13,72,55,44,35,27,9,66,41,10,30.27,30.15,7,2,12,0.00
2013-4-14,65,55,48,44,32,20,74,45,18,30.24,30.12,6,2,13,0.04
2013-4-15,85,64,53,52,47,41,83,58,22,30.33,30.12,8,2,12,0.00
2013-4-16,84,67,58,55,51,48,80,60,31,30.45,30.33,11,3,13,0.00
2013-4-17,80,68,60,60,54,52,89,63,37,30.42,30.27,9,2,13,0.47
2013-4-18,82,67,60,60,52,38,92,63,21,30.27,30.09,8,3,20,0.00
2013-4-19,67,55,42,58,46,27,93,72,49,30.24,29.94,11,4,21,1.06
2013-4-20,65,47,36,27,22,6,69,43,10,30.45,30.24,10,2,13,0.00
2013-4-21,74,54,40,29,23,10,57,34,10,30.53,30.42,9,2,11,0.00
2013-4-22,78,60,45,35,28,14,58,34,10,30.50,30.33,8,2,11,0.00
2013-4-23,77,60,47,36,28,21,45,31,13,30.39,30.24,9,3,13,0.00
2013-4-24,69,58,45,56,44,35,89,63,40,30.39,30.24,7,3,12,0.16
2013-4-25,69,51,39,41,30,6,90,54,10,30.50,30.36,9,2,14,0.04
2013-4-26,75,56,45,33,23,11,42,30,10,30.53,30.45,8,3,11,0.00
2013-4-27,57,51,50,50,46,31,93,82,39,30.56,30.30,7,2,18,0.51
2013-4-28,54,53,51,53,50,46,97,91,77,30.33,30.18,10,4,16,2.56
2013-4-29,74,61,52,60,49,39,97,71,31,30.24,30.15,7,2,11,0.00
2013-4-30,81,63,51,53,48,37,89,62,21,30.30,30.18,6,2,11,0.00
2013-5-1,74,64,57,51,48,43,76,57,34,30.39,30.30,9,2,12,0.00
2013-5-2,77,63,56,51,46,42,72,55,31,30.39,30.30,9,3,14,0.00
2013-5-3,68,60,56,50,45,38,76,60,33,30.33,30.15,10,3,20,0.00
2013-5-4,57,53,49,50,45,33,93,75,47,30.15,30.06,10,3,17,1.50
2013-5-5,61,51,46,60,49,45,96,94,90,30.06,29.97,6,1,9,1.97
2013-5-6,56,48,43,51,44,41,95,86,66,30.12,29.97,7,1,12,0.16
2013-5-7,70,55,46,54,45,39,94,73,33,30.18,30.06,9,1,13,0.00
2013-5-8,73,60,52,56,50,44,89,72,35,30.27,30.15,6,1,12,0.00
2013-5-9,81,65,54,61,49,38,92,64,22,30.33,30.24,5,1,10,0.00
2013-5-10,70,64,60,54,48,43,71,57,38,30.33,30.18,6,2,15,0.00
2013-5-11,70,62,56,62,55,48,88,79,60,30.21,30.12,5,0,12,0.59
2013-5-12,68,55,47,49,33,6,86,52,10,30.33,30.18,8,2,14,0.00
2013-5-13,70,53,42,30,23,4,57,35,10,30.42,30.30,7,2,14,0.00
2013-5-14,83,61,45,44,35,27,55,39,19,30.42,30.30,7,2,12,0.00
2013-5-15,88,70,62,47,43,30,52,40,13,30.39,30.24,7,1,10,0.00
2013-5-16,86,69,59,55,48,38,72,50,18,30.30,30.21,5,1,9,0.00
2013-5-17,80,69,62,56,51,46,72,54,34,30.33,30.24,6,1,10,0.00
2013-5-18,74,65,61,65,60,51,92,83,61,30.30,30.24,7,1,10,0.20
2013-5-19,66,64,64,64,62,61,94,92,88,30.30,30.24,9,2,11,0.47
2013-5-23,78,66,60,63,50,46,67,57,49,30.24,30.15,6,2,12,0.16
2013-5-24,74,61,54,50,44,34,80,57,24,30.45,30.24,10,1,13,0.00
2013-5-25,80,61,49,41,32,14,62,40,10,30.50,30.39,5,0,10,0.00
2013-5-26,83,63,52,44,36,20,54,39,10,30.47,30.39,5,0,8,0.00
2013-5-27,86,70,58,50,44,38,51,41,21,30.45,30.33,5,0,8,0.00
2013-5-28,88,73,64,55,49,39,67,46,19,30.42,30.33,4,0,10,0.00
2013-5-29,88,73,64,57,51,38,71,49,18,30.45,30.36,4,0,9,0.00
2013-5-30,86,72,65,58,53,47,72,53,28,30.45,30.36,8,1,12,0.00
2013-5-31,86,73,66,58,54,49,72,53,29,30.42,30.30,3,0,13,0.00
2013-6-1,85,72,66,64,58,53,88,62,36,30.33,30.21,5,1,10,0.47
2013-6-2,73,68,64,71,65,61,94,91,78,30.21,30.15,7,1,12,0.94
2013-6-3,81,68,63,68,61,54,95,80,43,30.21,30.15,6,0,10,0.04
2013-6-4,86,69,59,65,56,50,93,68,32,30.27,30.21,6,1,9,0.00
2013-6-5,82,68,63,63,60,57,93,76,45,30.27,30.18,6,1,21,1.73
2013-6-6,78,68,63,70,63,60,93,85,63,30.18,30.03,4,1,10,0.00
2013-6-7,76,67,64,69,63,57,93,86,67,30.12,29.97,3,0,9,0.75
2013-6-8,82,68,61,70,60,55,93,79,40,30.30,30.12,4,0,8,0.00
2013-6-9,81,70,66,66,62,58,89,78,50,30.33,30.21,7,1,10,0.12
2013-6-10,83,70,65,69,61,55,92,76,40,30.24,30.18,4,1,11,0.24
2013-6-11,85,74,66,73,64,58,92,73,45,30.27,30.21,7,0,13,0.28
2013-6-12,90,75,68,73,66,63,91,75,42,30.33,30.24,6,0,9,0.00
2013-6-13,83,74,67,69,66,63,90,76,53,30.24,30.03,15,1,16,0.55
2013-6-14,84,70,59,63,53,46,89,61,28,30.27,30.12,4,1,14,0.00
2013-6-15,88,71,62,57,52,47,67,51,30,30.36,30.27,0,0,8,0.00
2013-6-16,90,73,65,62,56,50,70,57,28,30.39,30.27,3,0,8,0.00
2013-6-17,88,73,68,69,64,60,88,74,42,30.30,30.21,3,0,6,0.31
2013-6-18,75,69,65,71,64,62,91,86,77,30.18,30.12,7,0,10,0.91
2013-6-19,86,70,61,65,59,53,92,73,33,30.33,30.18,5,0,9,0.00
2013-6-20,88,71,66,62,59,52,82,68,29,30.45,30.33,3,0,8,0.04
2013-6-21,81,70,66,65,61,57,84,73,47,30.47,30.39,3,0,7,0.00
2013-6-22,90,72,62,63,58,52,88,64,29,30.47,30.33,0,0,7,0.00
2013-6-23,86,72,64,70,60,51,82,68,32,30.45,30.36,0,0,10,0.08
2013-6-24,90,76,68,68,63,56,88,68,31,30.45,30.36,0,0,7,0.00
2013-6-25,83,73,67,72,65,63,87,78,57,30.42,30.30,4,0,7,0.20
2013-6-26,81,74,68,72,67,64,91,81,65,30.33,30.18,0,0,25,0.31
2013-6-27,86,76,71,69,66,64,84,73,51,30.21,30.09,3,0,6,0.00
2013-6-28,88,74,68,71,66,61,90,78,40,30.12,29.94,0,0,21,0.28
2013-6-29,89,73,66,68,59,50,90,66,28,30.00,29.94,0,0,7,0.00
2013-6-30,91,74,64,59,53,35,75,54,14,30.06,29.97,0,0,7,0.00
2013-7-1,80,70,64,70,60,56,85,71,53,30.15,30.03,0,0,7,0.31
2013-7-2,84,71,65,69,62,58,88,76,47,30.30,30.15,4,0,8,0.04
2013-7-3,70,67,64,64,62,61,93,85,75,30.39,30.30,5,1,11,0.94
2013-7-4,71,67,64,69,65,62,95,94,93,30.39,30.33,6,1,10,0.83
2013-7-5,73,68,66,70,66,63,95,91,81,30.42,30.33,4,0,10,0.16
2013-7-6,76,68,66,72,65,62,93,90,74,30.39,30.33,6,1,10,2.72
2013-7-7,74,69,66,72,67,64,95,94,93,30.42,30.33,4,0,8,1.46
2013-7-8,85,73,67,76,68,65,95,86,53,30.45,30.36,0,0,7,0.12
2013-7-9,86,74,69,73,68,64,90,81,48,30.42,30.33,0,0,9,0.79
2013-7-10,85,72,68,81,68,64,93,89,71,30.36,30.21,4,0,11,0.35
2013-7-11,86,72,67,73,67,62,93,84,48,30.24,30.15,0,0,7,0.04
2013-7-12,84,72,67,69,63,56,93,74,41,30.24,30.15,5,1,10,0.00
2013-7-13,83,72,66,64,60,57,86,69,41,30.33,30.18,4,0,10,0.00
2013-7-14,80,71,66,69,63,61,90,77,57,30.45,30.30,4,0,8,0.00
2013-7-15,87,74,66,68,62,56,90,70,36,30.53,30.45,3,0,12,0.04
2013-7-16,90,75,67,68,64,60,88,70,38,30.56,30.50,0,0,6,0.00
2013-7-17,90,76,68,72,65,60,90,71,37,30.53,30.42,3,0,9,0.00
2013-7-18,92,74,67,68,64,58,90,73,34,30.47,30.33,3,0,9,0.87
2013-7-19,86,74,68,73,67,62,92,80,46,30.39,30.24,5,0,7,0.00
2013-7-20,89,74,70,70,65,60,88,75,38,30.30,30.21,3,0,7,0.00
2013-7-21,85,73,69,70,66,61,88,78,47,30.30,30.21,3,0,7,0.12
2013-7-22,83,72,68,73,65,61,91,81,47,30.27,30.12,3,0,9,0.00
2013-7-23,79,71,68,69,65,62,88,82,65,30.21,30.12,0,0,7,0.08
2013-7-24,82,73,68,71,66,61,92,80,50,30.15,30.09,0,0,0,0.00
2013-7-25,88,73,65,67,60,51,91,66,31,30.27,30.15,0,0,4,0.00
2013-7-26,86,72,64,71,61,56,83,69,46,30.33,30.24,0,0,12,0.98
2013-7-27,74,72,66,64,63,61,91,75,69,30.24,30.18,0,0,7,0.16
2013-7-28,85,72,66,66,60,51,89,68,38,30.30,30.18,0,0,8,0.00
2013-7-29,82,68,61,56,53,49,82,61,33,30.42,30.30,5,0,7,0.00
2013-7-30,87,70,59,62,54,49,79,61,29,30.45,30.36,0,0,4,0.00
2013-7-31,77,69,66,70,64,61,90,83,73,30.39,30.24,4,0,10,0.39
2013-8-1,84,73,68,71,64,56,92,76,41,30.24,30.21,3,0,7,0.00
2013-8-2,88,73,66,66,61,54,89,69,32,30.30,30.21,6,0,9,0.00
2013-8-3,79,72,66,67,63,60,88,75,52,30.33,30.27,4,0,9,0.00
2013-8-4,85,73,68,68,62,53,90,71,38,30.33,30.27,4,0,9,0.00
2013-8-5,87,71,62,60,56,50,83,60,30,30.33,30.24,0,0,7,0.00
2013-8-6,81,72,67,66,60,53,84,66,55,30.27,30.21,0,0,0,0.00
2013-8-7,81,73,68,74,68,66,92,86,70,30.30,30.24,5,0,10,1.73
2013-8-8,85,73,69,72,67,64,91,83,56,30.33,30.24,0,0,8,0.00
2013-8-9,87,76,69,71,66,63,87,74,45,30.36,30.27,4,0,7,0.00
2013-8-10,81,75,71,70,67,63,88,78,64,30.39,30.33,0,0,10,0.24
2013-8-11,85,74,69,73,67,64,92,80,53,30.42,30.33,0,0,4,0.04
2013-8-12,84,74,68,74,67,64,91,81,54,30.39,30.24,0,0,4,0.75
2013-8-13,84,73,69,76,67,63,93,84,50,30.27,30.15,0,0,8,0.51
2013-8-14,79,68,63,67,60,50,92,77,36,30.27,30.18,7,1,10,0.00
2013-8-15,75,66,60,60,56,53,86,71,47,30.30,30.27,0,0,8,0.00
2013-8-16,71,66,60,60,56,53,81,72,55,30.33,30.27,0,0,0,0.00
2013-8-17,70,65,62,61,58,55,90,79,66,30.36,30.30,0,0,0,0.67
2013-8-18,72,66,63,70,63,60,92,90,85,30.42,30.33,6,0,9,0.20
2013-8-19,81,69,64,74,65,62,93,87,57,30.39,30.30,4,0,9,0.35
2013-8-20,81,71,65,71,65,63,92,83,60,30.42,30.33,4,0,10,0.16
2013-8-21,74,69,68,71,65,64,91,88,85,30.45,30.39,4,0,10,0.43
2013-8-22,86,73,67,72,65,59,92,78,41,30.42,30.30,3,0,7,0.08
2013-8-23,88,73,65,73,63,57,93,75,38,30.36,30.27,3,0,5,0.00
2013-8-24,89,72,64,67,61,58,90,72,37,30.47,30.33,3,0,7,0.04
2013-8-25,83,70,62,60,54,49,76,59,32,30.59,30.47,0,0,4,0.00
2013-8-26,86,70,61,61,56,51,85,65,34,30.53,30.39,0,0,0,0.00
2013-8-27,86,70,62,67,60,53,90,71,34,30.42,30.30,0,0,0,0.00
2013-8-28,88,74,66,68,63,58,90,73,36,30.33,30.27,0,0,0,0.00
2013-8-29,86,73,68,69,65,62,89,77,44,30.30,30.21,0,0,9,0.47
2013-8-30,90,76,68,73,66,61,93,74,39,30.30,30.21,0,0,6,0.00
2013-8-31,93,77,70,72,66,60,90,73,34,30.24,30.15,0,0,0,0.00
2013-9-1,88,74,68,73,65,60,88,77,40,30.21,30.12,6,0,8,0.28
2013-9-2,82,72,67,70,66,62,91,81,54,30.24,30.15,4,0,7,0.00
2013-9-3,86,74,69,70,64,56,91,72,37,30.27,30.15,4,0,7,0.16
2013-9-4,88,72,64,68,59,52,90,67,30,30.36,30.24,0,0,4,0.00
2013-9-5,83,70,63,66,58,52,90,68,40,30.39,30.33,0,0,6,0.00
2013-9-6,89,70,63,65,58,54,89,69,31,30.42,30.33,4,0,7,0.00
2013-9-7,89,72,65,63,59,50,85,68,29,30.39,30.27,0,0,7,0.00
2013-9-8,86,71,66,65,60,55,87,71,35,30.30,27.91,0,0,0,0.00
2013-9-9,90,73,66,65,62,57,84,70,36,28.05,27.96,0,0,6,0.47
2013-9-10,91,75,67,63,61,54,81,64,29,28.17,28.05,3,0,6,0.00
2013-9-11,88,74,67,67,62,56,84,67,38,28.17,28.05,0,0,3,0.00
2013-9-12,83,72,67,68,64,59,88,79,48,28.05,27.88,0,0,15,0.59
2013-9-13,78,68,59,66,57,44,91,70,35,27.88,27.82,3,0,9,0.00
2013-9-14,81,63,51,55,48,44,86,62,29,27.99,27.85,0,0,7,0.00
2013-9-15,87,68,59,57,52,48,77,60,28,28.08,27.99,0,0,7,0.00
2013-9-16,84,70,63,65,55,48,86,63,29,28.08,28.02,0,0,4,0.00
2013-9-17,74,67,61,60,54,49,86,66,43,28.14,28.05,3,0,10,0.00
2013-9-18,77,65,61,54,50,47,71,59,44,28.14,28.05,0,0,10,0.00
2013-9-19,86,68,61,61,56,52,85,68,32,28.11,27.99,5,0,7,0.00
2013-9-20,86,71,64,61,56,48,82,62,32,28.02,27.85,5,0,6,0.00
2013-9-21,69,65,60,63,60,56,93,84,63,27.85,27.70,8,1,12,2.01
2013-9-22,76,62,56,63,53,46,94,77,36,27.82,27.73,5,2,11,0.00
2013-9-23,83,67,57,58,53,47,89,64,31,27.94,27.82,7,0,9,0.00
2013-9-24,67,63,59,60,55,52,83,75,68,27.94,27.82,4,0,7,0.00
2013-9-25,65,62,61,63,60,56,93,91,82,27.82,27.76,5,1,9,0.83
2013-9-26,77,64,61,67,58,51,94,84,41,27.94,27.82,0,0,7,0.04
2013-9-27,80,64,57,59,55,48,91,75,36,28.05,27.94,0,0,4,0.00
2013-9-28,71,61,58,57,54,47,83,76,42,28.11,28.02,0,0,4,0.00
2013-9-29,71,62,56,53,49,44,78,65,38,28.05,27.94,0,0,3,0.00
2013-9-30,80,63,56,59,52,44,88,70,28,27.99,27.94,0,0,6,0.00
2013-10-1,81,64,58,56,54,50,84,72,34,28.08,27.96,0,0,3,0.00
2013-10-2,81,67,60,65,58,52,91,76,40,28.08,27.99,0,0,0,0.00
2013-10-3,81,68,64,60,57,53,80,68,43,28.05,27.99,0,0,0,0.00
2013-10-4,86,68,61,60,57,53,85,69,33,28.08,28.02,0,0,0,0.00
2013-10-5,88,70,62,63,56,50,90,65,28,28.05,27.96,0,0,0,0.00
2013-10-6,80,69,64,61,56,52,83,65,42,27.96,27.79,0,0,8,0.08
2013-10-7,69,58,53,56,49,43,93,74,41,27.94,27.79,4,0,7,1.46
2013-10-8,75,58,48,57,48,44,91,71,36,28.05,27.91,4,0,10,0.00
2013-10-9,77,62,55,55,50,45,82,66,33,28.08,28.02,0,0,3,0.00
2013-10-10,76,61,54,57,50,42,90,71,33,30.12,27.96,4,1,7,0.00
2013-10-11,72,60,52,59,54,50,95,82,58,30.15,30.09,6,2,8,0.00
2013-10-12,74,64,55,60,57,54,98,80,57,30.18,30.09,6,2,10,0.00
2013-10-13,72,63,56,62,59,55,97,85,68,30.27,30.18,10,3,13,0.00
2013-10-14,73,65,58,64,60,57,98,87,65,30.27,30.18,5,2,8,0.00
2013-10-15,70,63,59,62,59,57,94,86,69,30.21,30.12,4,2,8,0.00
2013-10-16,67,62,58,61,58,56,95,88,79,30.12,30.03,6,1,9,0.00
2013-10-17,67,62,54,66,60,50,98,95,88,30.06,29.97,7,2,10,0.13
2013-10-18,62,54,50,54,50,47,98,87,67,30.09,30.03,4,2,10,0.04
2013-10-19,62,55,50,55,51,47,96,87,74,30.06,29.97,5,2,8,0.00
2013-10-20,61,49,41,50,42,39,95,80,49,30.12,30.06,6,2,10,0.00
2013-10-21,79,57,47,54,46,41,85,69,41,30.18,30.06,6,2,9,0.00
2013-10-22,74,58,51,54,50,47,93,76,45,30.09,29.94,3,1,8,0.00
2013-10-23,55,46,36,49,39,32,96,78,48,30.12,29.88,10,2,16,0.00
2013-10-24,58,44,36,42,36,32,88,75,49,30.24,30.09,4,2,10,0.00
2013-10-25,62,41,31,34,27,23,81,61,34,30.41,30.24,10,3,14,0.00
2013-10-26,66,46,34,37,30,25,72,55,34,30.33,30.18,4,2,11,0.00
2013-10-27,67,54,46,52,44,32,87,69,50,30.18,30.12,4,1,6,0.00
2013-10-28,60,56,53,55,53,51,97,90,80,30.30,30.18,5,2,11,0.00
2013-10-29,79,58,50,57,53,49,98,85,47,30.36,30.27,5,2,9,0.00
2013-10-30,84,67,58,59,55,51,88,68,40,30.36,30.21,6,2,8,0.00
2013-10-31,68,63,60,62,57,53,98,80,68,30.21,29.85,9,4,19,0.04
2013-11-1,77,61,49,67,56,44,98,83,46,29.91,29.82,8,2,13,0.29
2013-11-2,67,51,44,51,42,34,98,73,41,30.12,29.88,7,2,12,0.00
2013-11-3,70,49,39,46,38,32,98,71,35,30.30,30.12,8,3,18,0.00
2013-11-4,77,52,43,45,36,31,80,56,31,30.41,30.30,8,3,18,0.00
2013-11-5,79,56,43,47,38,31,66,51,33,30.42,30.33,8,3,13,0.00
2013-11-6,79,62,52,57,51,34,93,69,43,30.36,30.15,10,4,16,0.00
2013-11-7,59,50,38,57,45,30,98,85,62,30.27,30.09,9,3,14,0.45
2013-11-8,63,43,36,34,28,22,82,57,30,30.36,30.24,8,4,18,0.00
2013-11-9,58,47,38,35,28,23,58,49,39,30.33,30.24,8,3,11,0.00
2013-11-10,75,53,40,44,35,27,75,52,32,30.33,30.27,9,2,13,0.00
2013-11-11,75,57,38,38,32,27,63,41,23,30.33,30.21,7,3,12,0.00
2013-11-12,52,40,25,38,25,11,82,56,44,30.44,30.18,10,4,20,0.00
2013-11-13,53,32,21,23,15,11,70,52,28,30.56,30.44,10,4,15,0.00
2013-11-14,67,46,30,28,16,-9,56,35,5,30.44,30.30,6,2,7,0.00
2013-11-15,53,49,42,51,38,18,94,70,37,30.30,30.18,6,3,11,0.17
2013-11-16,62,56,53,56,53,51,96,90,81,30.24,30.15,7,3,15,0.00
2013-11-17,65,60,58,64,58,55,98,92,83,30.15,29.94,11,4,17,0.30
2013-11-18,65,55,45,64,41,28,98,61,42,30.15,29.97,6,3,14,0.35
2013-11-19,50,42,36,29,25,23,60,51,42,30.15,28.08,12,4,17,0.00
2013-11-20,55,46,39,32,27,23,56,48,39,28.26,28.14,14,3,14,0.00
2013-11-21,64,54,45,54,45,27,89,72,49,35.05,28.26,10,4,18,0.00
2013-11-22,61,58,57,59,56,54,98,93,89,30.39,30.30,6,2,13,0.21
2013-11-23,53,43,32,53,40,20,98,90,61,30.39,30.27,11,3,12,0.08
2013-11-24,33,27,20,18,12,8,64,53,42,30.50,30.39,12,5,16,0.00
2013-11-25,44,36,26,34,18,10,88,49,34,30.47,30.24,13,4,16,0.13
2013-11-26,48,40,33,47,39,31,98,95,86,30.21,29.82,7,3,13,2.48
2013-11-27,35,29,22,35,24,15,97,83,68,30.27,29.85,8,3,17,0.04
2013-11-28,41,29,18,27,20,12,81,69,54,30.47,30.27,4,2,9,0.00
2013-11-29,47,37,29,28,23,18,67,57,47,30.56,30.47,7,3,10,0.13
2013-11-30,53,44,36,31,26,21,54,48,39,30.53,30.36,8,4,17,0.04
2013-12-1,54,46,38,37,30,22,66,53,47,30.36,30.09,6,2,10,0.00
2013-12-2,48,45,41,47,39,29,96,81,51,30.09,29.91,6,3,13,0.04
2013-12-3,56,52,48,53,50,47,98,94,88,30.00,29.94,6,2,12,0.04
2013-12-4,65,59,54,59,56,52,96,90,80,30.15,30.00,10,3,12,0.00
2013-12-5,67,65,60,65,63,58,98,95,90,30.18,30.09,8,3,10,0.25
2013-12-6,70,60,40,66,58,39,98,94,82,30.21,30.03,10,4,17,1.24
2013-12-7,39,35,34,38,34,33,98,98,96,30.41,30.21,12,4,13,0.00
2013-12-8,50,43,34,50,43,33,98,98,98,30.33,30.15,13,6,25,0.75
2013-12-9,53,49,45,53,49,44,98,98,97,30.24,30.09,6,2,12,0.95
2013-12-10,44,36,28,43,34,23,98,90,74,30.39,30.06,6,2,11,0.91
2013-12-11,48,38,25,30,26,21,84,62,47,30.44,30.39,6,2,10,0.00
2013-12-12,36,30,25,23,18,12,79,63,49,30.50,30.41,6,2,12,0.00
2013-12-13,46,36,26,26,19,11,57,50,41,30.44,30.21,11,3,11,0.00
2013-12-14,52,47,44,51,40,22,97,79,40,30.24,29.91,10,4,17,0.78
2013-12-15,45,34,30,44,31,26,96,90,83,30.24,29.97,8,3,13,0.05
2013-12-16,48,37,27,34,29,25,93,74,56,30.27,30.21,6,3,11,0.00
2013-12-17,54,46,38,36,30,21,58,54,50,30.30,30.12,10,5,15,0.00
2013-12-18,44,37,29,23,19,17,66,48,40,30.39,30.27,9,2,12,0.00
2013-12-19,61,48,38,29,22,16,41,35,28,30.36,30.24,8,3,14,0.00
2013-12-20,59,53,48,50,34,23,77,48,36,30.27,30.18,10,4,14,0.00
2013-12-21,66,62,58,64,58,51,97,89,75,30.18,30.00,13,4,16,0.12
2013-12-22,67,59,55,64,57,52,96,92,82,30.18,30.00,20,4,25,2.20
2013-12-23,54,42,32,52,40,28,95,92,88,30.36,30.15,5,2,7,0.37
2013-12-24,32,29,23,29,20,11,87,70,53,30.47,30.36,0,0,0,0.00
2013-12-25,50,36,22,30,21,13,69,54,40,30.44,30.36,0,0,0,0.00
2013-12-26,45,36,31,28,24,19,76,61,49,30.41,30.33,0,0,0,0.00
2013-12-27,49,38,32,30,25,22,71,60,46,30.47,30.39,0,0,0,0.00
2013-12-28,44,39,34,42,30,23,98,72,50,30.41,30.00,0,0,0,0.75
2013-12-29,48,43,38,47,41,37,98,95,88,30.12,29.94,0,0,0,0.50
2013-12-30,42,38,34,40,35,31,96,92,88,30.27,28.14,3,0,5,0.00
2013-12-31,37,34,30,32,27,22,93,77,57,30.44,30.24,5,1,14,0.00
2014-1-1,48,39,31,28,24,20,73,55,44,30.36,30.18,7,2,12,0.00
2014-1-2,45,37,19,44,31,11,97,80,54,30.18,29.88,11,5,17,0.66